createdAt,value
2022-08-18T00:01:45.754Z,10.33
2022-08-18T00:03:55.902Z,11.30
2022-08-18T00:06:01.671Z,10.73
2022-08-18T00:08:06.057Z,11.20
2022-08-18T00:10:18.556Z,11.67
2022-08-18T00:12:23.500Z,11.57
2022-08-18T00:14:26.575Z,11.60
2022-08-18T00:16:30.941Z,11.10
2022-08-18T00:18:33.980Z,11.10
2022-08-18T00:20:37.037Z,11.90
2022-08-18T00:22:40.157Z,11.80
2022-08-18T00:24:48.393Z,11.70
2022-08-18T00:26:52.744Z,11.07
2022-08-18T00:28:55.771Z,11.67
2022-08-18T00:30:58.837Z,10.73
2022-08-18T00:33:03.215Z,10.50
2022-08-18T00:35:08.845Z,12.00
2022-08-18T00:37:11.906Z,11.50
2022-08-18T00:39:14.913Z,11.97
2022-08-18T00:41:18.049Z,11.40
2022-08-18T00:43:23.282Z,11.80
2022-08-18T00:45:29.471Z,11.83
2022-08-18T00:47:52.297Z,11.20
2022-08-18T00:49:57.087Z,12.20
2022-08-18T00:52:01.361Z,11.93
2022-08-18T00:54:07.453Z,12.23
2022-08-18T00:56:13.336Z,12.70
2022-08-18T00:58:21.231Z,12.83
2022-08-18T01:00:24.375Z,12.80
2022-08-18T01:02:30.773Z,13.80
2022-08-18T01:04:38.013Z,12.53
2022-08-18T01:06:49.541Z,13.37
2022-08-18T01:08:52.589Z,13.77
2022-08-18T01:10:56.140Z,13.40
2022-08-18T01:12:59.826Z,14.63
2022-08-18T01:15:03.277Z,12.80
2022-08-18T01:17:24.273Z,12.80
2022-08-18T01:19:45.638Z,13.47
2022-08-18T01:21:53.398Z,13.90
2022-08-18T01:23:58.917Z,13.03
2022-08-18T01:26:01.000Z,12.43
2022-08-18T01:28:04.309Z,13.30
2022-08-18T01:30:10.556Z,13.63
2022-08-18T01:32:17.084Z,13.20
2022-08-18T01:34:21.521Z,13.00
2022-08-18T01:36:24.613Z,14.63
2022-08-18T01:38:27.951Z,14.23
2022-08-18T01:41:24.064Z,13.63
2022-08-18T01:42:56.540Z,14.03
2022-08-18T01:44:59.557Z,14.63
2022-08-18T01:47:05.346Z,13.60
2022-08-18T01:49:09.131Z,14.93
2022-08-18T01:51:13.164Z,13.97
2022-08-18T01:53:17.236Z,13.50
2022-08-18T01:55:20.341Z,14.47
2022-08-18T01:57:25.526Z,13.87
2022-08-18T01:59:28.579Z,14.43
2022-08-18T02:01:37.018Z,14.53
2022-08-18T02:03:42.117Z,15.50
2022-08-18T02:05:49.033Z,14.73
2022-08-18T02:07:54.027Z,15.43
2022-08-18T02:09:58.243Z,14.60
2022-08-18T02:12:02.549Z,15.60
2022-08-18T02:14:07.258Z,15.20
2022-08-18T02:16:10.592Z,15.43
2022-08-18T02:18:25.992Z,13.60
2022-08-18T02:20:40.633Z,14.73
2022-08-18T02:22:45.750Z,15.37
2022-08-18T02:24:48.871Z,15.03
2022-08-18T02:26:51.860Z,15.57
2022-08-18T02:28:54.917Z,15.30
2022-08-18T02:30:59.359Z,14.67
2022-08-18T02:33:02.576Z,16.20
2022-08-18T02:35:09.515Z,16.10
2022-08-18T02:37:15.688Z,14.97
2022-08-18T02:39:18.821Z,14.97
2022-08-18T02:41:23.966Z,15.50
2022-08-18T02:43:27.500Z,15.00
2022-08-18T02:45:30.508Z,14.43
2022-08-18T02:47:35.209Z,13.83
2022-08-18T02:49:38.239Z,15.30
2022-08-18T02:51:41.217Z,14.30
2022-08-18T02:53:47.065Z,14.53
2022-08-18T02:55:50.480Z,14.70
2022-08-18T02:57:53.904Z,14.60
2022-08-18T02:59:57.120Z,14.00
2022-08-18T03:02:02.893Z,13.43
2022-08-18T03:04:08.458Z,14.30
2022-08-18T03:06:11.604Z,15.73
2022-08-18T03:08:14.600Z,14.23
2022-08-18T03:10:32.483Z,15.93
2022-08-18T03:12:37.401Z,15.53
2022-08-18T03:14:40.990Z,15.40
2022-08-18T03:16:53.939Z,15.37
2022-08-18T03:18:58.034Z,16.00
2022-08-18T03:21:07.803Z,15.57
2022-08-18T03:23:10.917Z,15.90
2022-08-18T03:25:13.903Z,16.20
2022-08-18T03:27:16.922Z,15.33
2022-08-18T03:29:20.498Z,16.30
2022-08-18T03:31:25.012Z,15.03
2022-08-18T03:33:31.273Z,15.60
2022-08-18T03:35:36.099Z,15.97
2022-08-18T03:37:40.566Z,16.07
2022-08-18T03:39:43.696Z,17.37
2022-08-18T03:41:59.265Z,16.00
2022-08-18T03:44:03.948Z,16.33
2022-08-18T03:46:12.125Z,16.33
2022-08-18T03:48:15.214Z,16.60
2022-08-18T03:50:19.561Z,16.97
2022-08-18T03:52:23.495Z,15.57
2022-08-18T03:54:28.244Z,16.33
2022-08-18T03:56:33.589Z,16.00
2022-08-18T03:58:36.849Z,15.67
2022-08-18T04:00:40.226Z,15.80
2022-08-18T04:02:43.463Z,16.80
2022-08-18T04:04:46.580Z,17.20
2022-08-18T04:06:57.142Z,16.40
2022-08-18T04:09:01.873Z,17.57
2022-08-18T04:11:06.517Z,16.30
2022-08-18T04:13:09.530Z,17.20
2022-08-18T04:15:12.779Z,17.30
2022-08-18T04:17:15.717Z,16.93
2022-08-18T04:19:27.447Z,17.23
2022-08-18T04:21:32.930Z,16.47
2022-08-18T04:23:43.472Z,17.40
2022-08-18T04:25:47.226Z,16.30
2022-08-18T04:27:52.012Z,16.43
2022-08-18T04:29:56.656Z,17.47
2022-08-18T04:32:04.696Z,17.00
2022-08-18T04:34:07.769Z,16.80
2022-08-18T04:36:12.421Z,17.67
2022-08-18T04:38:21.899Z,17.30
2022-08-18T04:40:27.150Z,17.20
2022-08-18T04:42:30.219Z,17.47
2022-08-18T04:44:34.779Z,19.43
2022-08-18T04:46:40.734Z,17.60
2022-08-18T04:48:43.883Z,17.40
2022-08-18T04:50:48.717Z,19.03
2022-08-18T04:53:09.163Z,17.90
2022-08-18T04:55:12.213Z,18.17
2022-08-18T04:57:17.013Z,19.23
2022-08-18T04:59:20.457Z,19.20
2022-08-18T05:01:27.183Z,18.83
2022-08-18T05:03:30.291Z,19.57
2022-08-18T05:05:33.308Z,18.97
2022-08-18T05:07:36.418Z,19.03
2022-08-18T05:09:41.674Z,20.03
2022-08-18T05:11:45.328Z,19.40
2022-08-18T05:13:48.471Z,21.07
2022-08-18T05:16:10.122Z,20.00
2022-08-18T05:18:16.689Z,20.20
2022-08-18T05:20:23.387Z,19.80
2022-08-18T05:22:28.816Z,20.07
2022-08-18T05:24:37.449Z,21.57
2022-08-18T05:26:41.551Z,20.10
2022-08-18T05:28:45.751Z,19.43
2022-08-18T05:30:48.863Z,20.67
2022-08-18T05:32:52.251Z,19.63
2022-08-18T05:34:56.748Z,19.07
2022-08-18T05:37:11.557Z,19.70
2022-08-18T05:39:20.995Z,20.13
2022-08-18T05:41:28.935Z,19.27
2022-08-18T05:43:33.325Z,19.87
2022-08-18T05:45:36.464Z,19.00
2022-08-18T05:47:39.620Z,19.97
2022-08-18T05:49:44.686Z,19.57
2022-08-18T05:51:50.751Z,19.83
2022-08-18T05:54:11.303Z,22.43
2022-08-18T05:56:32.066Z,20.67
2022-08-18T05:58:38.960Z,21.27
2022-08-18T06:00:43.042Z,20.40
2022-08-18T06:02:49.188Z,19.57
2022-08-18T06:04:53.757Z,20.23
2022-08-18T06:07:02.736Z,20.33
2022-08-18T06:09:12.167Z,20.40
2022-08-18T06:11:17.365Z,20.00
2022-08-18T06:13:26.085Z,19.10
2022-08-18T06:15:33.507Z,19.40
2022-08-18T06:18:02.369Z,20.50
2022-08-18T06:20:10.917Z,21.43
2022-08-18T06:22:25.812Z,20.33
2022-08-18T06:24:37.499Z,19.27
2022-08-18T06:26:45.490Z,19.07
2022-08-18T06:29:00.843Z,18.70
2022-08-18T06:31:06.569Z,20.07
2022-08-18T06:33:17.664Z,21.33
2022-08-18T06:35:28.170Z,18.73
2022-08-18T06:37:56.620Z,20.00
2022-08-18T06:39:59.851Z,19.00
2022-08-18T06:42:05.870Z,19.93
2022-08-18T06:44:11.382Z,19.50
2022-08-18T06:46:19.408Z,19.20
2022-08-18T06:48:26.918Z,19.43
2022-08-18T06:50:34.167Z,17.83
2022-08-18T06:52:40.159Z,19.47
2022-08-18T06:54:49.428Z,19.43
2022-08-18T06:56:55.951Z,19.77
2022-08-18T06:59:15.540Z,22.03
2022-08-18T07:01:19.061Z,19.03
2022-08-18T07:03:24.887Z,18.00
2022-08-18T07:05:29.478Z,19.50
2022-08-18T07:07:40.175Z,18.93
2022-08-18T07:09:45.406Z,19.20
2022-08-18T07:12:03.110Z,18.50
2022-08-18T07:14:17.071Z,17.97
2022-08-18T07:16:47.108Z,17.30
2022-08-18T07:18:48.143Z,16.43
2022-08-18T07:20:54.759Z,18.27
2022-08-18T07:23:00.279Z,17.07
2022-08-18T07:25:05.985Z,17.80
2022-08-18T07:27:11.034Z,19.13
2022-08-18T07:29:15.289Z,18.60
2022-08-18T07:31:37.663Z,18.33
2022-08-18T07:33:43.208Z,17.20
2022-08-18T07:35:49.197Z,16.03
2022-08-18T07:37:56.663Z,18.20
2022-08-18T07:40:06.375Z,19.93
2022-08-18T07:42:14.430Z,19.63
2022-08-18T07:44:44.284Z,19.30
2022-08-18T07:46:56.249Z,18.87
2022-08-18T07:48:59.739Z,19.13
2022-08-18T07:51:10.139Z,18.37
2022-08-18T07:53:19.706Z,18.23
2022-08-18T07:55:30.031Z,18.03
2022-08-18T07:57:42.632Z,18.70
2022-08-18T07:59:49.427Z,18.03
2022-08-18T08:01:57.178Z,18.30
2022-08-18T08:04:08.364Z,17.93
2022-08-18T08:06:20.337Z,16.90
2022-08-18T08:08:27.518Z,17.53
2022-08-18T08:10:35.509Z,16.13
2022-08-18T08:12:42.847Z,17.67
2022-08-18T08:14:47.948Z,16.93
2022-08-18T08:16:52.630Z,19.40
2022-08-18T08:19:02.325Z,20.60
2022-08-18T08:21:17.677Z,17.40
2022-08-18T08:23:27.442Z,16.33
2022-08-18T08:25:46.323Z,14.43
2022-08-18T08:28:00.378Z,13.17
2022-08-18T08:30:06.912Z,14.30
2022-08-18T08:32:13.695Z,13.30
2022-08-18T08:34:21.709Z,13.47
2022-08-18T08:36:29.274Z,12.20
2022-08-18T08:38:44.450Z,12.10
2022-08-18T08:40:53.760Z,10.93
2022-08-18T08:43:01.566Z,11.27
2022-08-18T08:45:08.993Z,12.13
2022-08-18T08:47:16.980Z,12.10
2022-08-18T08:49:33.781Z,11.33
2022-08-18T08:51:49.535Z,12.90
2022-08-18T08:54:03.590Z,12.23
2022-08-18T08:56:30.498Z,12.40
2022-08-18T08:58:41.744Z,12.43
2022-08-18T09:01:02.511Z,12.47
2022-08-18T09:03:31.491Z,13.20
2022-08-18T09:05:42.539Z,13.17
2022-08-18T09:08:03.149Z,12.30
2022-08-18T09:10:41.947Z,12.80
2022-08-18T09:13:03.765Z,12.47
2022-08-18T09:15:22.136Z,11.30
2022-08-18T09:17:42.531Z,12.57
2022-08-18T09:19:58.707Z,12.87
2022-08-18T09:22:07.973Z,12.80
2022-08-18T09:24:22.079Z,13.40
2022-08-18T09:26:40.834Z,12.90
2022-08-18T09:28:59.745Z,12.77
2022-08-18T09:31:20.003Z,16.00
2022-08-18T09:33:29.533Z,14.10
2022-08-18T09:36:10.244Z,11.87
2022-08-18T09:38:35.074Z,12.60
2022-08-18T09:41:10.752Z,13.73
2022-08-18T09:43:20.100Z,13.40
2022-08-18T09:45:55.401Z,13.87
2022-08-18T09:48:03.331Z,13.00
2022-08-18T09:50:34.091Z,14.13
2022-08-18T09:52:57.853Z,14.30
2022-08-18T09:55:02.955Z,12.60
2022-08-18T09:57:19.611Z,13.93
2022-08-18T09:59:59.025Z,13.80
2022-08-18T10:02:06.283Z,13.20
2022-08-18T10:04:32.177Z,13.20
2022-08-18T10:06:38.448Z,13.50
2022-08-18T10:09:26.717Z,13.73
2022-08-18T10:11:41.147Z,13.70
2022-08-18T10:13:51.078Z,14.63
2022-08-18T10:18:50.053Z,14.70
2022-08-18T10:21:01.820Z,13.70
2022-08-18T10:25:37.043Z,12.83
2022-08-18T10:27:49.788Z,13.80
2022-08-18T10:29:54.905Z,13.17
2022-08-18T10:32:23.004Z,13.10
2022-08-18T10:34:52.140Z,14.70
2022-08-18T10:36:59.096Z,14.30
2022-08-18T10:39:05.948Z,13.37
2022-08-18T10:41:15.734Z,13.70
2022-08-18T10:43:45.832Z,13.30
2022-08-18T10:45:59.373Z,13.40
2022-08-18T10:48:17.359Z,13.37
2022-08-18T10:50:24.331Z,14.17
2022-08-18T10:52:51.310Z,13.60
2022-08-18T10:55:21.605Z,15.90
2022-08-18T10:57:34.461Z,13.37
2022-08-18T10:59:50.523Z,13.47
2022-08-18T11:02:03.583Z,13.57
2022-08-18T11:04:14.089Z,13.20
2022-08-18T11:06:23.474Z,14.10
2022-08-18T11:08:26.642Z,14.23
2022-08-18T11:10:57.692Z,12.63
2022-08-18T11:18:10.413Z,12.37
2022-08-18T11:20:17.906Z,12.40
2022-08-18T11:22:31.757Z,15.57
2022-08-18T11:24:37.823Z,22.63
2022-08-18T11:26:44.033Z,14.50
2022-08-18T11:28:56.111Z,11.90
2022-08-18T11:31:00.648Z,11.40
2022-08-18T11:33:04.687Z,11.60
2022-08-18T11:35:13.295Z,12.37
2022-08-18T11:37:26.997Z,11.80
2022-08-18T11:39:38.354Z,12.00
2022-08-18T11:41:48.582Z,11.70
2022-08-18T11:43:56.927Z,11.43
2022-08-18T11:46:04.462Z,11.80
2022-08-18T11:48:23.776Z,11.10
2022-08-18T11:50:31.694Z,10.63
2022-08-18T11:52:49.536Z,11.03
2022-08-18T11:55:02.105Z,11.30
2022-08-18T11:57:46.435Z,10.33
2022-08-18T11:59:54.902Z,10.90
2022-08-18T12:02:03.842Z,10.07
2022-08-18T12:04:12.093Z,11.20
2022-08-18T12:06:29.847Z,10.93
2022-08-18T12:11:27.033Z,11.80
2022-08-18T12:13:28.830Z,11.03
2022-08-18T12:15:44.018Z,11.47
2022-08-18T12:17:52.842Z,10.97
2022-08-18T12:19:58.026Z,11.53
2022-08-18T12:22:11.675Z,12.30
2022-08-18T12:24:26.047Z,11.97
2022-08-18T12:26:38.662Z,11.20
2022-08-18T12:28:46.334Z,12.20
2022-08-18T12:30:56.215Z,11.37
2022-08-18T12:33:05.399Z,11.60
2022-08-18T12:35:11.335Z,12.80
2022-08-18T12:37:57.746Z,13.07
2022-08-18T12:39:43.085Z,11.70
2022-08-18T12:41:47.603Z,12.30
2022-08-18T12:43:58.465Z,11.70
2022-08-18T12:46:02.788Z,11.03
2022-08-18T12:48:07.122Z,11.97
2022-08-18T12:50:11.444Z,11.70
2022-08-18T12:52:15.490Z,11.10
2022-08-18T12:54:20.507Z,11.10
2022-08-18T12:56:27.205Z,11.70
2022-08-18T12:58:30.870Z,11.30
2022-08-18T13:00:40.892Z,11.70
2022-08-18T13:02:44.151Z,11.80
2022-08-18T13:04:47.585Z,10.90
2022-08-18T13:06:59.852Z,10.67
2022-08-18T13:09:16.109Z,11.43
2022-08-18T13:11:23.688Z,11.80
2022-08-18T13:13:29.497Z,10.93
2022-08-18T13:15:33.417Z,10.93
2022-08-18T13:17:36.891Z,10.83
2022-08-18T13:19:44.668Z,11.27
2022-08-18T13:21:47.842Z,11.00
2022-08-18T13:23:52.727Z,10.50
2022-08-18T13:26:01.598Z,10.63
2022-08-18T13:28:05.524Z,10.87
2022-08-18T13:30:29.590Z,10.20
2022-08-18T13:32:47.015Z,10.80
2022-08-18T13:34:50.487Z,10.10
2022-08-18T13:36:57.518Z,12.30
2022-08-18T13:39:01.328Z,11.10
2022-08-18T13:41:06.416Z,10.77
2022-08-18T13:43:10.487Z,9.93
2022-08-18T13:45:24.910Z,9.73
2022-08-18T13:47:31.180Z,9.20
2022-08-18T13:49:34.278Z,9.90
2022-08-18T13:51:38.953Z,10.73
2022-08-18T13:53:57.538Z,10.10
2022-08-18T13:56:09.793Z,10.90
2022-08-18T13:58:20.231Z,10.20
2022-08-18T14:00:30.777Z,9.93
2022-08-18T14:02:34.361Z,9.60
2022-08-18T14:04:38.553Z,10.57
2022-08-18T14:06:46.963Z,10.27
2022-08-18T14:08:59.048Z,10.13
2022-08-18T14:11:03.376Z,10.20
2022-08-18T14:13:20.006Z,10.37
2022-08-18T14:15:25.597Z,9.87
2022-08-18T14:17:30.163Z,10.50
2022-08-18T14:19:50.996Z,9.10
2022-08-18T14:22:12.184Z,9.43
2022-08-18T14:24:32.907Z,9.27
2022-08-18T14:26:50.328Z,9.53
2022-08-18T14:28:53.725Z,9.57
2022-08-18T14:30:59.335Z,9.23
2022-08-18T14:33:05.234Z,8.53
2022-08-18T14:35:33.506Z,9.90
2022-08-18T14:37:35.244Z,9.07
2022-08-18T14:39:38.420Z,9.77
2022-08-18T14:41:54.590Z,9.10
2022-08-18T14:44:12.225Z,9.20
2022-08-18T14:48:27.408Z,16.17
2022-08-18T14:50:30.562Z,9.60
2022-08-18T14:52:33.591Z,9.60
2022-08-18T14:54:36.922Z,9.03
2022-08-18T14:56:40.172Z,8.90
2022-08-18T14:58:45.009Z,8.87
2022-08-18T15:00:54.220Z,9.70
2022-08-18T15:03:01.112Z,9.20
2022-08-18T15:05:19.240Z,9.50
2022-08-18T15:07:23.898Z,9.50
2022-08-18T15:09:27.688Z,8.93
2022-08-18T15:11:31.883Z,9.30
2022-08-18T15:13:35.987Z,9.87
2022-08-18T15:15:50.566Z,8.63
2022-08-18T15:17:54.478Z,8.87
2022-08-18T15:20:01.697Z,9.60
2022-08-18T15:22:22.423Z,9.73
2022-08-18T15:24:43.201Z,9.90
2022-08-18T15:26:47.902Z,9.80
2022-08-18T15:28:55.013Z,8.90
2022-08-18T15:31:49.669Z,18.27
2022-08-18T15:33:31.609Z,9.97
2022-08-18T15:35:44.269Z,9.60
2022-08-18T15:37:51.190Z,10.37
2022-08-18T15:40:03.576Z,9.80
2022-08-18T15:42:11.711Z,9.50
2022-08-18T15:44:17.958Z,10.00
2022-08-18T15:46:21.116Z,9.57
2022-08-18T15:48:26.666Z,9.03
2022-08-18T15:50:31.053Z,9.60
2022-08-18T15:52:36.221Z,9.80
2022-08-18T15:54:44.290Z,10.00
2022-08-18T15:56:57.851Z,10.10
2022-08-18T15:59:07.702Z,10.00
2022-08-18T16:01:20.676Z,8.73
2022-08-18T16:03:24.496Z,10.77
2022-08-18T16:05:31.219Z,10.33
2022-08-18T16:07:41.087Z,10.37
2022-08-18T16:09:47.986Z,10.13
2022-08-18T16:11:51.117Z,9.63
2022-08-18T16:13:54.173Z,10.13
2022-08-18T16:15:59.104Z,10.57
2022-08-18T16:18:02.654Z,9.43
2022-08-18T16:20:08.052Z,9.93
2022-08-18T16:22:11.242Z,9.80
2022-08-18T16:24:18.272Z,10.17
2022-08-18T16:26:22.518Z,10.50
2022-08-18T16:28:34.710Z,10.03
2022-08-18T16:30:38.348Z,10.23
2022-08-18T16:32:41.495Z,9.70
2022-08-18T16:34:44.669Z,9.70
2022-08-18T16:36:47.658Z,9.80
2022-08-18T16:38:53.322Z,10.40
2022-08-18T16:40:58.196Z,10.60
2022-08-18T16:43:01.359Z,10.50
2022-08-18T16:45:06.003Z,11.03
2022-08-18T16:47:09.454Z,10.47
2022-08-18T16:49:12.479Z,10.57
2022-08-18T16:51:17.604Z,10.70
2022-08-18T16:53:20.633Z,10.60
2022-08-18T16:55:23.900Z,10.50
2022-08-18T16:57:53.454Z,11.70
2022-08-18T17:00:12.225Z,10.47
2022-08-18T17:02:38.551Z,11.40
2022-08-18T17:04:41.628Z,10.67
2022-08-18T17:06:47.240Z,10.17
2022-08-18T17:08:51.190Z,9.93
2022-08-18T17:10:54.586Z,10.20
2022-08-18T17:12:59.976Z,9.77
2022-08-18T17:15:10.258Z,8.80
2022-08-18T17:17:13.520Z,10.10
2022-08-18T17:19:16.602Z,9.67
2022-08-18T17:21:22.243Z,9.70
2022-08-18T17:23:25.372Z,9.60
2022-08-18T17:25:28.660Z,10.23
2022-08-18T17:27:37.553Z,9.40
2022-08-18T17:29:48.211Z,10.57
2022-08-18T17:31:55.357Z,9.57
2022-08-18T17:34:06.369Z,10.50
2022-08-18T17:36:15.463Z,9.87
2022-08-18T17:38:27.001Z,9.73
2022-08-18T17:40:32.770Z,9.67
2022-08-18T17:42:40.094Z,10.27
2022-08-18T17:44:52.242Z,9.97
2022-08-18T17:46:59.080Z,10.07
2022-08-18T17:49:05.199Z,10.07
2022-08-18T17:51:35.694Z,10.10
2022-08-18T17:53:38.722Z,10.40
2022-08-18T17:55:45.455Z,10.23
2022-08-18T17:57:58.687Z,10.33
2022-08-18T18:00:09.672Z,10.90
2022-08-18T18:02:29.305Z,10.60
2022-08-18T18:04:33.472Z,10.90
2022-08-18T18:06:39.557Z,11.30
2022-08-18T18:08:55.144Z,11.73
2022-08-18T18:11:11.049Z,11.07
2022-08-18T18:13:23.675Z,11.27
2022-08-18T18:15:32.557Z,10.77
2022-08-18T18:17:38.384Z,12.17
2022-08-18T18:19:42.500Z,11.50
2022-08-18T18:21:55.342Z,11.60
2022-08-18T18:24:16.136Z,11.80
2022-08-18T18:26:28.321Z,12.57
2022-08-18T18:28:35.349Z,11.80
2022-08-18T18:30:39.776Z,11.63
2022-08-18T18:32:59.384Z,11.40
2022-08-18T18:35:15.115Z,11.70
2022-08-18T18:37:26.325Z,12.30
2022-08-18T18:39:33.791Z,12.13
2022-08-18T18:41:40.086Z,11.63
2022-08-18T18:43:46.579Z,12.03
2022-08-18T18:46:23.271Z,11.73
2022-08-18T18:48:48.300Z,11.90
2022-08-18T18:50:56.249Z,10.83
2022-08-18T18:53:11.232Z,11.83
2022-08-18T18:55:16.924Z,12.00
2022-08-18T18:57:31.925Z,12.37
2022-08-18T18:59:45.327Z,11.50
2022-08-18T19:01:55.576Z,11.33
2022-08-18T19:04:06.666Z,10.73
2022-08-18T19:06:16.611Z,10.20
2022-08-18T19:08:28.564Z,10.43
2022-08-18T19:10:39.113Z,10.63
2022-08-18T19:12:47.128Z,10.67
2022-08-18T19:15:00.318Z,10.70
2022-08-18T19:17:14.275Z,10.77
2022-08-18T19:19:37.325Z,10.70
2022-08-18T19:22:04.463Z,11.50
2022-08-18T19:24:10.741Z,10.30
2022-08-18T19:26:18.533Z,11.47
2022-08-18T19:28:30.127Z,11.03
2022-08-18T19:30:34.463Z,28.13
2022-08-18T19:32:44.255Z,11.17
2022-08-18T19:34:52.459Z,11.40
2022-08-18T19:37:02.450Z,11.67
2022-08-18T19:39:12.484Z,11.80
2022-08-18T19:41:19.987Z,11.23
2022-08-18T19:43:43.247Z,12.20
2022-08-18T19:45:49.882Z,12.10
2022-08-18T19:47:58.527Z,12.50
2022-08-18T19:50:07.220Z,12.60
2022-08-18T19:52:45.336Z,12.50
2022-08-18T19:54:54.569Z,12.03
2022-08-18T19:57:09.414Z,12.57
2022-08-18T19:59:34.066Z,12.30
2022-08-18T20:01:46.654Z,13.00
2022-08-18T20:04:03.701Z,12.60
2022-08-18T20:06:35.074Z,12.83
2022-08-18T20:09:03.867Z,13.00
2022-08-18T20:11:20.880Z,11.80
2022-08-18T20:13:45.742Z,13.17
2022-08-18T20:16:44.302Z,13.40
2022-08-18T20:18:49.946Z,12.80
2022-08-18T20:21:26.178Z,12.90
2022-08-18T20:23:34.263Z,13.03
2022-08-18T20:25:43.697Z,12.80
2022-08-18T20:27:50.723Z,13.57
2022-08-18T20:30:17.532Z,13.77
2022-08-18T20:32:23.467Z,13.07
2022-08-18T20:34:27.926Z,13.80
2022-08-18T20:36:36.585Z,13.20
2022-08-18T20:38:41.671Z,13.67
2022-08-18T20:40:47.808Z,13.80
2022-08-18T20:42:56.267Z,14.30
2022-08-18T20:45:14.754Z,13.83
2022-08-18T20:47:36.303Z,14.00
2022-08-18T20:49:48.567Z,13.67
2022-08-18T20:51:57.909Z,13.60
2022-08-18T20:54:07.082Z,14.10
2022-08-18T20:56:32.561Z,13.60
2022-08-18T20:58:57.866Z,13.10
2022-08-18T21:01:01.885Z,13.60
2022-08-18T21:03:09.040Z,13.40
2022-08-18T21:05:16.661Z,13.70
2022-08-18T21:07:37.299Z,14.17
2022-08-18T21:09:40.962Z,13.27
2022-08-18T21:11:46.988Z,13.90
2022-08-18T21:13:52.959Z,14.10
2022-08-18T21:15:57.149Z,14.20
2022-08-18T21:18:01.992Z,14.50
2022-08-18T21:20:08.065Z,14.33
2022-08-18T21:22:11.996Z,15.27
2022-08-18T21:24:24.083Z,13.77
2022-08-18T21:26:28.436Z,14.53
2022-08-18T21:28:34.656Z,14.37
2022-08-18T21:30:38.003Z,14.07
2022-08-18T21:32:41.303Z,14.57
2022-08-18T21:34:45.531Z,13.40
2022-08-18T21:36:53.531Z,14.30
2022-08-18T21:39:06.240Z,15.07
2022-08-18T21:41:14.713Z,14.83
2022-08-18T21:43:36.289Z,14.70
2022-08-18T21:45:49.444Z,15.27
2022-08-18T21:47:56.536Z,14.27
2022-08-18T21:50:02.067Z,14.77
2022-08-18T21:52:05.392Z,14.47
2022-08-18T21:54:09.703Z,15.10
2022-08-18T21:56:23.239Z,14.70
2022-08-18T21:58:33.939Z,15.13
2022-08-18T22:00:38.939Z,14.40
2022-08-18T22:02:42.582Z,14.30
2022-08-18T22:04:47.242Z,15.67
2022-08-18T22:06:53.204Z,15.27
2022-08-18T22:08:59.910Z,15.03
2022-08-18T22:11:59.713Z,15.03
2022-08-18T22:13:59.738Z,15.20
2022-08-18T22:16:28.131Z,14.93
2022-08-18T22:18:36.194Z,14.70
2022-08-18T22:20:46.352Z,15.57
2022-08-18T22:23:06.975Z,15.17
2022-08-18T22:25:13.026Z,16.20
2022-08-18T22:27:21.105Z,17.23
2022-08-18T22:29:32.535Z,17.50
2022-08-18T22:31:38.229Z,16.13
2022-08-18T22:33:41.599Z,17.60
2022-08-18T22:35:45.015Z,19.60
2022-08-18T22:37:50.820Z,18.10
2022-08-18T22:39:56.049Z,18.67
2022-08-18T22:41:59.975Z,19.10
2022-08-18T22:44:05.458Z,17.80
2022-08-18T22:46:11.024Z,18.60
2022-08-18T22:48:14.274Z,17.53
2022-08-18T22:50:17.382Z,18.90
2022-08-18T22:52:29.919Z,18.77
2022-08-18T22:54:34.215Z,17.50
2022-08-18T22:56:38.107Z,17.20
2022-08-18T22:58:42.263Z,18.53
2022-08-18T23:00:47.093Z,18.07
2022-08-18T23:02:51.708Z,17.00
2022-08-18T23:04:54.890Z,18.10
2022-08-18T23:06:58.943Z,17.40
2022-08-18T23:09:02.473Z,18.40
2022-08-18T23:11:06.438Z,17.67
2022-08-18T23:13:09.551Z,17.50
2022-08-18T23:15:12.842Z,17.30
2022-08-18T23:17:16.102Z,17.40
2022-08-18T23:19:21.694Z,16.87
2022-08-18T23:21:34.132Z,17.43
2022-08-18T23:23:38.868Z,17.37
2022-08-18T23:25:41.907Z,16.97
2022-08-18T23:27:44.960Z,17.00
2022-08-18T23:29:48.723Z,17.50
2022-08-18T23:31:52.440Z,18.60
2022-08-18T23:33:55.463Z,19.20
2022-08-18T23:36:00.385Z,18.73
2022-08-18T23:38:03.469Z,17.57
2022-08-18T23:40:08.056Z,17.87
2022-08-18T23:42:13.228Z,18.13
2022-08-18T23:44:16.325Z,17.83
2022-08-18T23:46:22.132Z,16.90
2022-08-18T23:48:25.250Z,19.00
2022-08-18T23:50:29.577Z,18.13
2022-08-18T23:52:33.956Z,17.40
2022-08-18T23:54:37.491Z,18.17
2022-08-18T23:56:40.573Z,16.53
2022-08-18T23:58:45.517Z,17.00
